Airfield :
LOGIN :

Register | Disclaimer

   EN    FR    IT 

 










Legend :    VFR   Marginal VFR   IFR   Intensive IFR   Very Intensive IFR
Visi :
Ceiling :
>= 8 km
>= 3000ft
5 to 8 km
1000 to 3000 ft
1500m to 5 km
500 to 1000 ft
800 to 1500m
200 to 500 ft
< 800m
< 200 ft
Symbols :   Thunderstorms  Fog  Heavy snow  Heavy precipitations  Wind > 20 kt
SIGMETs :     Misc.  Thunderstorms  Icing  Turbulence  Mountain Waves  Volcanic Ashes







- Airport Elevation : 18 ft


LIPC - Cervia AFB Ravenna

CURRENT METAR :
  • 220155Z 24003KT 5000 BR NSC 09/07 Q1016 RMK BKN BKN190 VIS MIN 5000 WIND THR11 /////KT WIND THR29 22002KT WHT

EXPIRED METARs :
  • 220055Z 03002KT 5000 BR NSC 10/09 Q1017
  • 212355Z 33002KT 1600 BR NSC 10/09 Q1017 RMK SCT SCT130 VIS MIN 1600 WIND THR11 /////KT WIND THR29 35001KT YLO
  • 212334Z 27002KT 1800 BR NSC 10/09 Q1017 RMK SCT SCT130 VIS MIN 1800 WIND THR11 /////KT WIND THR29 29001KT YLO

TAF TAF LIPC
Valid from the 22 at 03:00 until the 22 at 12:00 UTC


220200Z 2203/2212 VRB03KT 5000 BR SCT015
TEMPO 2203/2206 1500 BR
BECMG 2206/2208 11015KT 9999 SCT020 BKN050
TEMPO 2209/2212 11018G30KT
No reported NOTAMs for that airfield.



MET'MAP, your aeronautical weather chart ! - Copyright ORBIFLY December 2007 - Disclaimer

ORBIFLY MET'MAP TEAM :

Programming & Development : Alexandra Zaïnal
Concept & Development : Baudouin d'Aumeries
Co-Development & Prog : Marc-Olivier Méhu
Technical & hardware support : Manuel Goepfert

Contact : metmap@orbifly.com




SOURCES & CREDITS :

   NOAA